LEXJ/SDR METAR and TAF weather

Enter ICAO airport designator
Station Type Date Time Source
LEXJ METAR 2019/06/26 18:00 UTC NOAA

LEXJ 261800Z 28010KT 240V300 9999 SCT012 22/18 Q1015


Station Type Date Time Source
LEXJ Decoded METAR 2019/06/26 18:00 UTC NOAA

Santander / Parayas, Spain (LEXJ) 43-26N 003-49W 9M
Jun 26, 2019 - 02:00 PM EDT / 2019.06.26 1800 UTC
Wind: from the W (280 degrees) at 12 MPH (10 KT) (direction variable):0
Visibility: greater than 7 mile(s):0
Sky conditions: partly cloudy
Temperature: 71 F (22 C)
Dew Point: 64 F (18 C)
Relative Humidity: 78%
Pressure (altimeter): 29.97 in. Hg (1015 hPa)
ob: LEXJ 261800Z 28010KT 240V300 9999 SCT012 22/18 Q1015
cycle: 18

Station Type Date Time Source
LEXJ TAF 2019/06/26 15:27 UTC NOAA

TAF TAF LEXJ 261400Z 2615/2715 30009KT CAVOK TX28/2715Z TN17/2705Z PROB30
TEMPO 2615/2620 28016G28KT BKN010 FEW040TCU PROB40
TEMPO 2620/2706 BKN010
TEMPO 2712/2715 03010KT

Example: see airport list